Time;durP1;ratioP1;P1;durP2;ratioP2;P2;SDS_P1;SDS_P2;PMS_P1;PMS_P2;Temp;Humidity;BMP_temperature;BMP_pressure;BME280_temperature;BME280_humidity;BME280_pressure;Samples;Min_cycle;Max_cycle;Signal;HPM_P1;HPM_P2
2022/01/16 00:01:46;;;;;;;22.60;12.45;;;1.40;82.60;;;;;;7371522;19;20230;-42
2022/01/16 00:04:13;;;;;;;25.90;13.20;;;1.40;81.70;;;;;;7377156;19;20594;-41
2022/01/16 00:06:47;;;;;;;28.02;13.88;;;1.30;82.20;;;;;;7373107;19;20128;-42
2022/01/16 00:09:17;;;;;;;29.17;13.10;;;1.40;82.30;;;;;;7371744;19;20140;-42
2022/01/16 00:11:50;;;;;;;27.75;13.50;;;1.40;82.30;;;;;;7367732;19;20619;-41
2022/01/16 00:14:19;;;;;;;22.75;11.00;;;1.20;82.60;;;;;;7375837;19;20146;-42
2022/01/16 00:16:49;;;;;;;26.80;13.40;;;1.20;83.30;;;;;;7373508;19;20146;-42
2022/01/16 00:19:18;;;;;;;31.50;13.90;;;1.40;83.20;;;;;;7378145;19;20131;-42
2022/01/16 00:21:51;;;;;;;30.40;13.88;;;1.30;82.90;;;;;;7375005;19;20191;-41
2022/01/16 00:24:20;;;;;;;25.85;12.43;;;1.40;83.20;;;;;;7380547;19;20131;-43
2022/01/16 00:26:52;;;;;;;24.75;11.60;;;1.40;83.00;;;;;;7380307;19;20127;-42
2022/01/16 00:29:22;;;;;;;25.88;12.18;;;1.70;82.80;;;;;;7368882;19;20158;-43
2022/01/16 00:31:51;;;;;;;29.95;13.10;;;1.70;81.90;;;;;;7369494;19;20131;-42
2022/01/16 00:34:21;;;;;;;31.67;13.82;;;1.90;81.40;;;;;;7373600;19;20135;-43
2022/01/16 00:36:55;;;;;;;23.88;12.70;;;2.00;80.90;;;;;;7369875;19;20700;-43
2022/01/16 00:39:28;;;;;;;27.92;13.57;;;2.10;80.40;;;;;;7370563;19;20147;-42
2022/01/16 00:41:58;;;;;;;27.42;13.32;;;2.20;79.30;;;;;;7372169;19;20141;-33
2022/01/16 00:44:27;;;;;;;29.48;13.48;;;1.80;80.00;;;;;;7354251;19;20883;-34
2022/01/16 00:46:57;;;;;;;27.88;13.50;;;1.90;80.40;;;;;;7363680;19;20139;-32
2022/01/16 00:49:26;;;;;;;26.45;13.55;;;1.80;80.10;;;;;;7366285;19;20170;-32
2022/01/16 00:51:59;;;;;;;29.90;13.68;;;1.70;80.30;;;;;;7373071;19;20155;-33
2022/01/16 00:54:29;;;;;;;29.70;15.13;;;1.50;81.40;;;;;;7349397;19;20139;-33
2022/01/16 00:56:58;;;;;;;26.23;13.98;;;1.30;82.20;;;;;;7366193;19;20136;-34
2022/01/16 00:59:28;;;;;;;33.15;14.40;;;1.30;82.30;;;;;;7366014;19;20124;-33
2022/01/16 01:01:59;;;;;;;28.77;13.75;;;1.30;82.40;;;;;;7362174;19;21453;-33
2022/01/16 01:04:28;;;;;;;26.15;13.02;;;1.20;82.70;;;;;;7372402;19;21264;-34
2022/01/16 01:07:03;;;;;;;33.83;13.45;;;1.20;83.10;;;;;;7366603;19;20867;-34
2022/01/16 01:09:32;;;;;;;28.25;12.82;;;1.10;83.80;;;;;;7365324;19;20139;-33
2022/01/16 01:12:06;;;;;;;37.88;15.02;;;1.10;83.70;;;;;;7362586;19;20163;-43
2022/01/16 01:14:42;;;;;;;29.98;13.90;;;1.00;84.20;;;;;;7369779;19;20139;-42
2022/01/16 01:17:20;;;;;;;32.47;13.77;;;1.00;84.30;;;;;;7370076;19;20166;-43
2022/01/16 01:19:50;;;;;;;27.83;14.10;;;1.10;83.70;;;;;;7370666;19;20218;-42
2022/01/16 01:22:22;;;;;;;26.40;13.35;;;1.10;83.50;;;;;;7364314;19;20650;-42
2022/01/16 01:24:51;;;;;;;28.38;12.02;;;1.10;83.50;;;;;;7363673;19;20154;-43
2022/01/16 01:27:23;;;;;;;33.05;14.77;;;1.10;83.60;;;;;;7372051;19;20124;-42
2022/01/16 01:29:59;;;;;;;34.90;15.23;;;1.20;83.70;;;;;;7363699;19;20136;-42
2022/01/16 01:32:30;;;;;;;28.10;12.57;;;1.30;83.30;;;;;;7370237;19;20134;-43
2022/01/16 01:35:02;;;;;;;27.15;13.35;;;1.30;83.00;;;;;;7372943;19;20131;-43
2022/01/16 01:37:34;;;;;;;32.08;13.45;;;1.50;82.90;;;;;;7369454;19;20138;-43
2022/01/16 01:40:08;;;;;;;30.52;14.25;;;1.70;81.80;;;;;;7370431;19;20126;-43
2022/01/16 01:42:44;;;;;;;29.00;14.63;;;1.80;81.20;;;;;;7370569;19;20617;-42
2022/01/16 01:51:05;;;;;;;30.52;14.15;;;1.50;81.90;;;;;;7371614;19;20151;-43
2022/01/16 01:53:38;;;;;;;37.08;16.42;;;1.40;82.60;;;;;;7367007;19;20148;-43
2022/01/16 01:56:10;;;;;;;27.52;14.77;;;1.40;83.00;;;;;;7367061;19;20140;-43
2022/01/16 01:58:40;;;;;;;29.48;14.63;;;1.50;82.80;;;;;;7371384;19;20582;-43
2022/01/16 02:01:12;;;;;;;27.33;13.90;;;1.50;82.50;;;;;;7369713;19;20135;-43
2022/01/16 02:03:45;;;;;;;31.23;14.10;;;1.60;82.50;;;;;;7370085;19;20148;-43
2022/01/16 02:06:17;;;;;;;27.00;14.10;;;1.60;82.40;;;;;;7365329;19;20929;-43
2022/01/16 02:08:51;;;;;;;30.05;15.10;;;1.60;81.80;;;;;;7372635;19;20146;-43
2022/01/16 02:11:24;;;;;;;35.33;16.10;;;1.50;82.40;;;;;;7361306;19;20155;-42
2022/01/16 02:13:59;;;;;;;29.45;14.07;;;1.50;82.70;;;;;;7368357;19;20154;-43
2022/01/16 02:30:58;;;;;;;32.95;15.10;;;2.10;81.20;;;;;;7368415;19;20144;-33
2022/01/16 02:36:18;;;;;;;28.70;14.93;;;2.40;79.60;;;;;;7370275;19;20679;-33
2022/01/16 02:38:50;;;;;;;26.30;13.88;;;2.20;79.30;;;;;;7377272;19;20139;-33
2022/01/16 02:41:19;;;;;;;27.88;14.13;;;2.30;79.20;;;;;;7371543;19;20142;-34
2022/01/16 02:43:53;;;;;;;36.22;16.88;;;2.30;78.90;;;;;;7367781;19;20608;-33
2022/01/16 02:46:40;;;;;;;29.02;14.63;;;2.30;78.70;;;;;;7379915;19;20973;-33
2022/01/16 02:49:24;;;;;;;28.52;14.52;;;2.30;78.50;;;;;;7375150;19;20198;-33
2022/01/16 02:51:56;;;;;;;29.45;16.08;;;2.20;78.20;;;;;;7368891;19;20139;-42
2022/01/16 02:54:34;;;;;;;27.67;15.05;;;1.80;79.50;;;;;;7376402;19;20138;-42
2022/01/16 02:57:05;;;;;;;35.45;14.43;;;1.90;80.70;;;;;;7375511;19;20690;-42
2022/01/16 02:59:36;;;;;;;29.60;15.48;;;2.00;79.90;;;;;;7374663;19;20131;-41
2022/01/16 03:02:07;;;;;;;34.70;15.60;;;2.10;79.30;;;;;;7373497;19;20135;-42
2022/01/16 03:04:37;;;;;;;33.08;16.05;;;2.20;78.60;;;;;;7374123;19;20143;-43
2022/01/16 03:07:07;;;;;;;31.30;15.80;;;2.30;78.40;;;;;;7372620;19;20131;-42
2022/01/16 03:09:56;;;;;;;31.75;14.55;;;2.30;78.50;;;;;;7376257;19;20135;-43
2022/01/16 03:12:28;;;;;;;26.55;14.82;;;2.30;78.30;;;;;;7369575;19;20241;-42
2022/01/16 03:14:58;;;;;;;29.63;15.40;;;2.10;78.70;;;;;;7376370;19;20131;-42
2022/01/16 03:17:37;;;;;;;30.55;16.00;;;2.10;78.50;;;;;;7373764;19;20128;-43
2022/01/16 03:22:50;;;;;;;27.83;15.30;;;2.00;79.10;;;;;;7374070;19;21123;-42
2022/01/16 03:25:23;;;;;;;29.42;16.50;;;2.00;78.80;;;;;;7374592;19;20135;-42
2022/01/16 03:27:52;;;;;;;26.83;14.07;;;2.10;78.50;;;;;;7376191;19;20163;-42
2022/01/16 03:30:22;;;;;;;30.55;16.00;;;2.10;77.90;;;;;;7366406;19;20131;-42
2022/01/16 03:32:51;;;;;;;30.80;16.20;;;1.90;79.10;;;;;;7376942;19;20127;-43
2022/01/16 03:35:21;;;;;;;33.80;16.58;;;1.90;79.60;;;;;;7373991;19;20600;-43
2022/01/16 03:37:53;;;;;;;28.98;14.25;;;2.00;79.20;;;;;;7374079;19;20139;-42
2022/01/16 03:40:26;;;;;;;29.73;16.02;;;2.00;78.90;;;;;;7373731;19;20143;-44
2022/01/16 03:42:59;;;;;;;25.85;15.15;;;2.10;78.70;;;;;;7367872;19;20136;-41
2022/01/16 03:45:28;;;;;;;27.30;15.40;;;2.10;78.30;;;;;;7372740;19;20128;-42
2022/01/16 03:47:58;;;;;;;28.15;14.05;;;2.00;78.20;;;;;;7374246;19;20158;-42
2022/01/16 03:50:28;;;;;;;24.52;13.77;;;1.90;78.80;;;;;;7371060;19;20133;-42
2022/01/16 03:52:57;;;;;;;24.75;14.80;;;2.00;78.50;;;;;;7371506;19;20601;-42
2022/01/16 03:55:30;;;;;;;26.38;14.70;;;1.50;77.50;;;;;;7373090;19;20140;-42
2022/01/16 03:58:03;;;;;;;27.48;15.73;;;1.80;78.30;;;;;;7366104;19;20626;-42
2022/01/16 04:00:33;;;;;;;23.05;13.63;;;1.40;79.20;;;;;;7372752;19;20151;-43
2022/01/16 04:03:03;;;;;;;27.30;14.20;;;1.20;79.90;;;;;;7372786;19;20134;-42
2022/01/16 04:05:32;;;;;;;27.40;15.05;;;1.30;80.90;;;;;;7372154;19;20127;-42
2022/01/16 04:08:02;;;;;;;23.38;14.45;;;1.20;80.90;;;;;;7370006;19;20156;-43
2022/01/16 04:10:34;;;;;;;31.27;15.73;;;1.10;81.60;;;;;;7374117;19;20141;-43
2022/01/16 04:13:05;;;;;;;27.27;14.57;;;1.10;81.40;;;;;;7371217;19;20155;-43
2022/01/16 04:15:35;;;;;;;21.02;13.18;;;1.10;81.30;;;;;;7371554;19;20198;-42
2022/01/16 04:18:09;;;;;;;27.27;13.75;;;1.20;81.10;;;;;;7376632;19;20139;-43
2022/01/16 04:20:39;;;;;;;27.90;14.85;;;1.40;80.50;;;;;;7354064;19;20135;-43
2022/01/16 04:23:10;;;;;;;26.65;14.18;;;1.00;80.90;;;;;;7370284;19;20124;-43
2022/01/16 04:25:42;;;;;;;24.23;13.35;;;1.10;82.00;;;;;;7358740;19;20150;-42
2022/01/16 04:28:11;;;;;;;25.73;12.95;;;1.20;81.10;;;;;;7376051;19;20128;-42
2022/01/16 04:30:41;;;;;;;35.47;15.63;;;1.10;81.00;;;;;;7367008;19;20130;-42
2022/01/16 04:33:10;;;;;;;28.90;13.77;;;1.10;80.80;;;;;;7373329;19;20135;-42
2022/01/16 04:35:40;;;;;;;24.95;14.30;;;1.10;81.10;;;;;;7369925;19;20126;-42
2022/01/16 04:38:09;;;;;;;25.90;14.32;;;1.20;81.30;;;;;;7371545;19;20135;-42
2022/01/16 04:43:47;;;;;;;25.30;12.90;;;1.10;80.70;;;;;;7373107;19;20135;-43
2022/01/16 04:46:16;;;;;;;33.47;15.32;;;1.10;81.00;;;;;;7361802;19;20542;-41
2022/01/16 04:48:46;;;;;;;25.42;13.63;;;1.30;80.70;;;;;;7373791;19;20516;-41
2022/01/16 04:51:18;;;;;;;27.48;14.25;;;1.10;80.50;;;;;;7370863;19;20139;-33
2022/01/16 04:53:48;;;;;;;27.50;14.13;;;1.20;80.40;;;;;;7369756;19;20132;-34
2022/01/16 04:56:20;;;;;;;23.98;13.80;;;1.30;79.80;;;;;;7373125;19;20132;-34
2022/01/16 04:58:50;;;;;;;28.05;14.23;;;1.30;79.70;;;;;;7369674;19;20128;-34
2022/01/16 05:01:20;;;;;;;28.60;16.50;;;1.30;78.70;;;;;;7369473;19;20136;-34
2022/01/16 05:03:50;;;;;;;25.88;12.95;;;1.10;79.80;;;;;;7376484;19;20142;-34
2022/01/16 05:06:19;;;;;;;30.58;15.27;;;1.20;79.90;;;;;;7363549;19;20528;-34
2022/01/16 05:08:49;;;;;;;24.23;12.38;;;1.30;79.30;;;;;;7377437;19;20124;-34
2022/01/16 05:11:25;;;;;;;28.65;14.45;;;1.50;78.70;;;;;;7358461;19;20151;-34
2022/01/16 05:16:37;;;;;;;26.10;14.70;;;1.80;77.70;;;;;;7373339;19;20648;-34
2022/01/16 05:19:09;;;;;;;28.10;13.85;;;1.80;77.30;;;;;;7364633;19;20131;-33
2022/01/16 05:21:40;;;;;;;23.88;13.73;;;1.70;77.70;;;;;;7361841;19;20135;-41
2022/01/16 05:24:11;;;;;;;26.85;13.60;;;1.80;77.50;;;;;;7375345;19;20550;-42
2022/01/16 05:26:45;;;;;;;21.00;12.43;;;1.90;76.70;;;;;;7371868;19;20211;-41
2022/01/16 05:29:15;;;;;;;22.60;12.75;;;1.90;76.20;;;;;;7372950;19;20635;-42
2022/01/16 05:31:45;;;;;;;26.10;14.15;;;1.60;77.10;;;;;;7371469;19;20130;-41
2022/01/16 05:34:18;;;;;;;19.73;11.75;;;1.60;77.30;;;;;;7365203;19;20142;-42
2022/01/16 05:36:48;;;;;;;25.05;13.70;;;1.50;77.30;;;;;;7372450;19;20134;-41
2022/01/16 05:39:17;;;;;;;22.08;12.52;;;1.50;77.20;;;;;;7371480;19;20236;-41
2022/01/16 05:41:49;;;;;;;24.10;13.93;;;1.50;77.30;;;;;;7367695;19;20138;-41
2022/01/16 05:44:19;;;;;;;22.40;15.07;;;1.60;76.90;;;;;;7367922;19;20515;-41
2022/01/16 05:46:51;;;;;;;22.10;13.95;;;1.70;76.30;;;;;;7371218;19;20188;-41
2022/01/16 05:49:20;;;;;;;22.23;12.88;;;1.70;75.60;;;;;;7371441;19;20143;-42
2022/01/16 05:51:50;;;;;;;25.48;13.30;;;1.80;75.20;;;;;;7365850;19;20511;-33
2022/01/16 05:54:19;;;;;;;21.55;14.90;;;1.80;75.00;;;;;;7368926;19;20124;-33
2022/01/16 05:56:52;;;;;;;21.90;11.95;;;1.70;75.10;;;;;;7375167;19;20757;-32
2022/01/16 05:59:21;;;;;;;19.42;11.95;;;1.60;75.60;;;;;;7371237;19;20246;-32
2022/01/16 06:01:51;;;;;;;21.85;13.40;;;1.50;75.10;;;;;;7369924;19;20139;-33
2022/01/16 06:04:20;;;;;;;24.33;12.90;;;1.40;75.70;;;;;;7372703;19;20135;-33
2022/01/16 06:06:50;;;;;;;22.67;13.52;;;1.40;76.00;;;;;;7365988;19;20606;-33
2022/01/16 06:09:22;;;;;;;24.45;12.93;;;1.50;75.70;;;;;;7370493;19;20160;-33
2022/01/16 06:11:55;;;;;;;22.73;13.10;;;1.40;75.90;;;;;;7364808;19;20155;-34
2022/01/16 06:14:25;;;;;;;24.10;14.07;;;1.40;75.50;;;;;;7367409;19;20152;-33
2022/01/16 06:16:55;;;;;;;24.92;15.38;;;1.40;75.20;;;;;;7366805;19;20199;-33
2022/01/16 06:19:25;;;;;;;21.20;11.98;;;1.40;75.10;;;;;;7367171;19;20143;-33
2022/01/16 06:21:55;;;;;;;22.65;12.80;;;1.30;75.10;;;;;;7370159;19;20155;-41
2022/01/16 06:24:24;;;;;;;26.15;13.82;;;1.30;75.40;;;;;;7369428;19;20151;-42
2022/01/16 06:26:56;;;;;;;22.95;12.98;;;1.30;75.10;;;;;;7369059;19;20631;-42
2022/01/16 06:29:26;;;;;;;26.83;14.02;;;1.10;75.10;;;;;;7371260;19;20632;-42
2022/01/16 06:31:56;;;;;;;25.25;12.80;;;1.00;76.50;;;;;;7356127;19;20151;-42
2022/01/16 06:34:25;;;;;;;20.80;11.65;;;0.90;76.50;;;;;;7369102;19;20153;-42
2022/01/16 06:36:55;;;;;;;19.85;12.10;;;0.90;76.30;;;;;;7368583;19;20138;-42
2022/01/16 06:39:29;;;;;;;27.08;12.73;;;0.60;77.10;;;;;;7367580;19;20128;-42
2022/01/16 06:42:01;;;;;;;20.75;12.65;;;1.20;78.50;;;;;;7368446;19;20131;-42
2022/01/16 06:44:30;;;;;;;21.70;12.63;;;0.20;78.20;;;;;;7364647;19;20147;-42
2022/01/16 06:47:00;;;;;;;20.17;12.73;;;0.00;79.80;;;;;;7367569;19;20132;-42
2022/01/16 06:49:30;;;;;;;23.60;12.80;;;0.00;80.30;;;;;;7370544;19;20151;-43
2022/01/16 06:52:02;;;;;;;26.10;13.35;;;-0.10;80.30;;;;;;7365234;19;20610;-41
2022/01/16 06:54:31;;;;;;;23.33;14.40;;;-0.20;80.30;;;;;;7364241;19;20191;-41
2022/01/16 06:57:03;;;;;;;27.38;14.48;;;-0.30;82.30;;;;;;7363328;19;20903;-41
2022/01/16 06:59:35;;;;;;;24.75;14.98;;;-0.30;83.40;;;;;;7368880;19;20351;-42
2022/01/16 07:02:05;;;;;;;27.10;16.38;;;-0.10;81.50;;;;;;7369265;19;20430;-43
2022/01/16 07:04:35;;;;;;;26.20;16.48;;;-0.30;81.10;;;;;;7363672;19;20359;-41
2022/01/16 07:07:05;;;;;;;26.80;15.10;;;-0.20;79.20;;;;;;7372252;19;20705;-42
2022/01/16 07:09:34;;;;;;;22.30;13.90;;;-0.30;79.10;;;;;;7347115;19;20151;-42
2022/01/16 07:12:08;;;;;;;22.45;13.50;;;-0.40;79.10;;;;;;7357699;19;20152;-42
2022/01/16 07:14:38;;;;;;;23.55;12.82;;;-0.40;79.10;;;;;;7363604;19;21893;-41
2022/01/16 07:17:07;;;;;;;25.10;13.68;;;-0.50;79.30;;;;;;7339124;19;20131;-41
2022/01/16 07:19:37;;;;;;;21.52;12.43;;;-0.40;79.30;;;;;;7375496;19;20147;-39
2022/01/16 07:22:07;;;;;;;19.40;13.23;;;-0.40;79.30;;;;;;7368456;19;20142;-32
2022/01/16 07:24:39;;;;;;;26.48;15.30;;;-0.40;79.60;;;;;;7373407;19;20132;-33
2022/01/16 07:27:11;;;;;;;26.60;14.38;;;-0.50;79.00;;;;;;7370263;19;20135;-32
2022/01/16 07:29:41;;;;;;;21.80;13.55;;;-0.40;79.40;;;;;;7369449;19;20175;-32
2022/01/16 07:32:11;;;;;;;23.95;13.52;;;-0.40;79.00;;;;;;7369837;19;20629;-32
2022/01/16 07:34:40;;;;;;;25.23;15.27;;;-0.40;78.80;;;;;;7375879;19;20132;-32
2022/01/16 07:37:12;;;;;;;24.38;13.85;;;-0.50;79.20;;;;;;7379831;19;21018;-32
2022/01/16 07:39:41;;;;;;;23.00;13.23;;;-0.50;79.40;;;;;;7376076;19;20518;-32
2022/01/16 07:42:14;;;;;;;20.50;12.40;;;-0.50;79.40;;;;;;7369672;19;20377;-32
2022/01/16 07:44:43;;;;;;;25.05;13.45;;;-0.50;79.60;;;;;;7377253;19;20135;-32
2022/01/16 07:47:14;;;;;;;22.55;14.48;;;-0.50;79.20;;;;;;7376713;19;20553;-32
2022/01/16 07:49:43;;;;;;;23.63;15.68;;;-0.50;78.90;;;;;;7376721;19;20522;-41
2022/01/16 07:52:13;;;;;;;25.35;14.85;;;-0.60;79.10;;;;;;7368429;19;20131;-41
2022/01/16 07:54:42;;;;;;;24.80;17.80;;;-0.70;79.60;;;;;;7378900;19;20128;-42
2022/01/16 07:57:14;;;;;;;28.02;17.80;;;-0.70;79.90;;;;;;7358395;19;20914;-42
2022/01/16 07:59:44;;;;;;;30.77;19.90;;;-0.60;79.50;;;;;;7370500;19;20359;-43
2022/01/16 08:02:14;;;;;;;28.08;18.08;;;-0.50;79.60;;;;;;7367605;19;21191;-43
2022/01/16 08:04:43;;;;;;;28.10;16.48;;;-0.30;79.00;;;;;;7364244;19;20372;-43
2022/01/16 08:07:15;;;;;;;21.98;14.73;;;-0.20;78.50;;;;;;7368169;19;20128;-42
2022/01/16 08:09:47;;;;;;;26.20;14.93;;;-0.20;78.70;;;;;;7370693;19;20136;-43
2022/01/16 08:12:19;;;;;;;28.15;14.35;;;0.00;78.20;;;;;;7371030;19;20248;-43
2022/01/16 08:14:50;;;;;;;28.67;15.48;;;0.40;78.30;;;;;;7363508;19;20131;-43
2022/01/16 08:17:20;;;;;;;24.08;13.32;;;0.70;77.50;;;;;;7362435;19;20492;-44
2022/01/16 08:19:50;;;;;;;25.23;14.75;;;0.70;77.70;;;;;;7363086;19;20139;-42
2022/01/16 08:22:21;;;;;;;25.88;14.82;;;0.90;77.80;;;;;;7369598;19;20135;-44
2022/01/16 08:24:51;;;;;;;22.45;13.13;;;1.10;76.90;;;;;;7363331;19;21695;-42
2022/01/16 08:27:23;;;;;;;26.38;15.20;;;1.30;76.50;;;;;;7355163;19;20131;-42
2022/01/16 08:29:55;;;;;;;26.50;14.18;;;1.10;76.00;;;;;;7358619;19;20127;-41
2022/01/16 08:32:24;;;;;;;24.75;13.13;;;0.80;76.40;;;;;;7359157;19;20143;-41
2022/01/16 08:34:55;;;;;;;26.38;14.57;;;0.60;77.70;;;;;;7372832;19;20747;-41
2022/01/16 08:37:27;;;;;;;24.45;13.88;;;0.80;77.90;;;;;;7362715;19;20168;-42
2022/01/16 08:39:56;;;;;;;26.48;14.80;;;1.10;77.50;;;;;;7376041;19;20124;-42
2022/01/16 08:42:29;;;;;;;28.05;14.50;;;1.40;75.70;;;;;;7372037;19;20479;-42
2022/01/16 08:44:58;;;;;;;28.60;15.20;;;1.70;75.50;;;;;;7374631;19;20330;-42
2022/01/16 08:47:28;;;;;;;27.10;16.65;;;2.10;73.90;;;;;;7358857;19;20367;-42
2022/01/16 08:49:58;;;;;;;26.42;14.73;;;2.20;71.80;;;;;;7355143;19;20151;-43
2022/01/16 08:52:28;;;;;;;21.98;14.00;;;2.40;72.50;;;;;;7359271;19;20148;-42
2022/01/16 08:54:57;;;;;;;25.80;13.70;;;2.40;71.60;;;;;;7362373;19;20128;-42
2022/01/16 08:57:29;;;;;;;22.70;14.38;;;2.30;71.60;;;;;;7367513;19;20136;-42
2022/01/16 08:59:59;;;;;;;28.77;14.45;;;2.30;71.90;;;;;;7373392;19;20147;-43
2022/01/16 09:02:28;;;;;;;21.30;13.82;;;2.40;70.90;;;;;;7375508;19;20123;-43
2022/01/16 09:04:58;;;;;;;25.08;13.50;;;2.20;70.40;;;;;;7371341;19;20666;-43
2022/01/16 09:07:30;;;;;;;23.05;12.88;;;1.90;72.20;;;;;;7369912;19;20220;-43
2022/01/16 09:10:01;;;;;;;26.88;14.32;;;2.00;72.80;;;;;;7373887;19;20142;-43
2022/01/16 09:12:34;;;;;;;22.63;13.95;;;2.10;72.40;;;;;;7365128;19;20546;-43
2022/01/16 09:15:04;;;;;;;20.75;13.57;;;2.30;71.60;;;;;;7375154;19;20647;-43
2022/01/16 09:17:34;;;;;;;21.30;13.95;;;2.20;71.80;;;;;;7359751;19;20606;-42
2022/01/16 09:20:03;;;;;;;25.95;16.90;;;2.20;71.80;;;;;;7353821;19;20386;-42
2022/01/16 09:22:34;;;;;;;22.92;15.40;;;2.00;72.10;;;;;;7361964;19;20821;-42
2022/01/16 09:25:03;;;;;;;23.20;14.48;;;2.00;72.80;;;;;;7360349;19;20139;-43
2022/01/16 09:27:36;;;;;;;22.40;14.23;;;2.00;72.00;;;;;;7368374;19;20135;-43
2022/01/16 09:30:08;;;;;;;22.73;13.48;;;1.90;72.70;;;;;;7369316;19;20441;-42
2022/01/16 09:32:37;;;;;;;24.63;14.40;;;2.00;72.50;;;;;;7371977;19;20147;-42
2022/01/16 09:35:10;;;;;;;24.50;15.55;;;1.80;74.40;;;;;;7369897;19;20458;-42
2022/01/16 09:37:40;;;;;;;21.80;15.30;;;1.80;73.90;;;;;;7370018;19;20139;-42
2022/01/16 09:40:17;;;;;;;27.70;17.95;;;1.60;74.10;;;;;;7372272;19;20442;-42
2022/01/16 09:42:52;;;;;;;25.52;15.70;;;1.60;74.00;;;;;;7367622;19;20138;-43
2022/01/16 09:45:22;;;;;;;27.80;16.50;;;1.80;74.20;;;;;;7371691;19;20135;-43
2022/01/16 09:47:52;;;;;;;24.65;16.13;;;2.00;72.80;;;;;;7371274;19;20374;-43
2022/01/16 09:50:23;;;;;;;28.75;18.65;;;2.10;72.10;;;;;;7365407;19;20366;-43
2022/01/16 09:52:54;;;;;;;24.05;17.05;;;2.10;72.20;;;;;;7367078;19;20715;-44
2022/01/16 09:55:24;;;;;;;28.30;17.08;;;2.40;71.60;;;;;;7370318;19;20131;-44
2022/01/16 09:57:57;;;;;;;23.17;15.48;;;2.60;70.70;;;;;;7367849;19;20135;-43
2022/01/16 10:00:28;;;;;;;25.95;16.02;;;2.60;70.70;;;;;;7367045;19;20135;-43
2022/01/16 10:03:02;;;;;;;27.00;16.08;;;2.70;70.90;;;;;;7373833;19;20136;-42
2022/01/16 10:05:35;;;;;;;26.02;15.02;;;2.70;70.50;;;;;;7359837;19;20151;-42
2022/01/16 10:08:07;;;;;;;22.83;15.38;;;2.70;70.50;;;;;;7371506;19;20135;-42
2022/01/16 10:10:38;;;;;;;21.25;13.95;;;2.80;69.70;;;;;;7370181;19;20174;-43
2022/01/16 10:13:33;;;;;;;21.55;15.02;;;2.90;70.00;;;;;;7370947;19;20123;-43
2022/01/16 10:16:02;;;;;;;22.88;14.30;;;3.10;69.30;;;;;;7369435;19;20127;-43
2022/01/16 10:18:38;;;;;;;23.20;14.55;;;3.20;69.10;;;;;;7366724;19;20163;-43
2022/01/16 10:21:08;;;;;;;22.25;14.30;;;3.40;68.60;;;;;;7365069;19;20729;-43
2022/01/16 10:23:42;;;;;;;23.63;14.88;;;3.50;68.30;;;;;;7362921;19;20123;-43
2022/01/16 10:26:21;;;;;;;22.55;14.48;;;3.50;67.50;;;;;;7361248;19;20140;-42
2022/01/16 10:28:54;;;;;;;24.23;14.63;;;3.50;68.10;;;;;;7363853;19;20621;-43
2022/01/16 10:31:26;;;;;;;22.17;14.23;;;3.50;68.10;;;;;;7367473;19;20127;-43
2022/01/16 10:33:57;;;;;;;22.58;15.07;;;3.60;67.30;;;;;;7365930;19;20135;-43
2022/01/16 10:36:34;;;;;;;24.52;13.93;;;3.70;67.40;;;;;;7364364;19;20159;-42
2022/01/16 10:39:08;;;;;;;20.50;14.15;;;3.80;67.70;;;;;;7352765;19;20151;-42
2022/01/16 10:41:38;;;;;;;25.23;15.10;;;4.10;67.20;;;;;;7361880;19;20609;-42
2022/01/16 10:44:28;;;;;;;23.17;14.77;;;3.90;66.70;;;;;;7362597;19;20493;-42
2022/01/16 10:46:57;;;;;;;22.10;14.98;;;4.20;66.70;;;;;;7370548;19;20606;-42
2022/01/16 10:49:27;;;;;;;27.90;16.00;;;4.80;64.90;;;;;;7369800;19;20147;-42
2022/01/16 10:52:11;;;;;;;23.98;14.43;;;5.10;62.80;;;;;;7365407;19;20128;-42
2022/01/16 10:54:43;;;;;;;25.90;15.85;;;5.30;62.00;;;;;;7367834;19;20131;-41
2022/01/16 10:57:22;;;;;;;21.48;14.73;;;5.30;61.50;;;;;;7363400;19;20618;-42
2022/01/16 11:00:09;;;;;;;23.55;14.82;;;5.30;61.60;;;;;;7376573;19;20198;-42
2022/01/16 11:02:39;;;;;;;25.50;15.93;;;5.20;61.70;;;;;;7375271;19;20131;-42
2022/01/16 11:05:12;;;;;;;23.88;15.27;;;5.10;61.80;;;;;;7370422;19;20132;-42
2022/01/16 11:07:44;;;;;;;23.55;14.88;;;4.90;61.80;;;;;;7374510;19;20139;-44
2022/01/16 11:10:30;;;;;;;25.90;17.80;;;4.80;62.50;;;;;;7373018;19;20371;-45
2022/01/16 11:13:01;;;;;;;26.63;17.58;;;4.80;62.60;;;;;;7361377;19;20766;-44
2022/01/16 11:15:35;;;;;;;24.63;17.13;;;4.80;63.10;;;;;;7371003;19;20136;-44
2022/01/16 11:18:05;;;;;;;26.65;17.52;;;4.70;63.70;;;;;;7378108;19;20145;-44
2022/01/16 11:20:37;;;;;;;26.35;15.82;;;4.70;63.10;;;;;;7375739;19;20132;-44
2022/01/16 11:23:29;;;;;;;28.52;16.27;;;4.70;63.10;;;;;;7373136;19;20655;-45
2022/01/16 11:26:00;;;;;;;22.67;14.32;;;4.60;63.40;;;;;;7361760;19;20131;-44
2022/01/16 11:28:29;;;;;;;27.00;18.13;;;4.40;64.00;;;;;;7364027;19;20914;-45
2022/01/16 11:31:03;;;;;;;25.88;16.45;;;4.30;64.60;;;;;;7371395;19;20132;-34
2022/01/16 11:33:35;;;;;;;30.42;20.05;;;4.40;65.00;;;;;;7361474;19;20374;-34
2022/01/16 11:36:11;;;;;;;26.48;16.30;;;4.30;65.20;;;;;;7359596;19;20131;-34
2022/01/16 11:38:44;;;;;;;26.13;16.48;;;4.30;66.20;;;;;;7374413;19;20768;-34
2022/01/16 11:41:18;;;;;;;27.75;16.90;;;4.50;65.30;;;;;;7368357;19;20135;-34
2022/01/16 11:43:49;;;;;;;25.08;17.20;;;4.40;66.40;;;;;;7372429;19;20139;-34
2022/01/16 11:46:23;;;;;;;31.75;17.05;;;4.50;65.30;;;;;;7375141;19;20146;-34
2022/01/16 11:48:56;;;;;;;24.90;16.35;;;4.60;65.10;;;;;;7375293;19;21230;-34
2022/01/16 11:52:02;;;;;;;27.60;17.80;;;4.60;65.30;;;;;;7374152;19;20131;-34
2022/01/16 11:54:34;;;;;;;25.30;16.30;;;4.60;65.70;;;;;;7375692;19;20673;-34
2022/01/16 11:57:07;;;;;;;27.50;17.10;;;4.50;66.60;;;;;;7365071;19;20135;-34
2022/01/16 11:59:42;;;;;;;29.02;17.25;;;4.50;67.00;;;;;;7362068;19;20403;-42
2022/01/16 12:02:28;;;;;;;29.20;18.02;;;4.50;67.30;;;;;;7364704;19;20137;-43
2022/01/16 12:05:04;;;;;;;33.83;19.17;;;4.40;68.00;;;;;;7373280;19;20172;-43
2022/01/16 12:07:50;;;;;;;29.80;17.63;;;4.40;68.40;;;;;;7376625;19;20135;-43
2022/01/16 12:10:58;;;;;;;28.35;17.17;;;4.40;68.60;;;;;;7368993;19;20401;-43
2022/01/16 12:13:53;;;;;;;34.50;19.35;;;4.30;68.90;;;;;;7355902;19;20464;-43
2022/01/16 12:16:47;;;;;;;31.00;18.58;;;4.30;69.80;;;;;;7362866;19;20605;-43
2022/01/16 12:19:50;;;;;;;36.20;18.08;;;4.40;70.10;;;;;;7363530;19;20158;-43
2022/01/16 12:22:44;;;;;;;35.38;19.95;;;4.50;70.30;;;;;;7356307;19;20371;-43
2022/01/16 12:25:20;;;;;;;32.67;17.67;;;4.70;69.30;;;;;;7352311;19;20127;-43
2022/01/16 12:27:53;;;;;;;27.33;16.67;;;4.90;68.20;;;;;;7373071;19;20130;-43
2022/01/16 12:30:38;;;;;;;28.80;17.00;;;4.80;68.20;;;;;;7356086;19;20359;-47
2022/01/16 12:33:13;;;;;;;29.77;17.55;;;4.80;68.20;;;;;;7355445;19;20132;-43
2022/01/16 12:36:12;;;;;;;28.38;15.90;;;4.80;68.10;;;;;;7369797;19;20235;-43
2022/01/16 12:38:50;;;;;;;26.20;15.20;;;4.80;68.00;;;;;;7350881;19;20757;-42
2022/01/16 12:41:24;;;;;;;24.55;14.23;;;4.80;68.50;;;;;;7349345;19;20166;-41
2022/01/16 12:43:57;;;;;;;32.45;15.95;;;4.80;67.60;;;;;;7355220;19;20135;-41
2022/01/16 12:46:39;;;;;;;25.02;14.40;;;4.80;67.70;;;;;;7362183;19;20128;-43
2022/01/16 12:49:11;;;;;;;25.95;12.88;;;4.80;67.50;;;;;;7368860;19;20143;-43
2022/01/16 12:51:45;;;;;;;26.48;13.90;;;4.80;67.30;;;;;;7369866;19;20519;-42
2022/01/16 12:54:19;;;;;;;18.77;11.00;;;4.80;67.10;;;;;;7369659;19;20135;-42
2022/01/16 12:56:50;;;;;;;21.48;11.15;;;4.90;66.20;;;;;;7370144;19;20132;-42
2022/01/16 12:59:22;;;;;;;20.48;11.15;;;4.90;65.60;;;;;;7362454;19;20132;-42
2022/01/16 13:01:55;;;;;;;17.55;10.48;;;4.90;66.00;;;;;;7373730;19;20227;-42
2022/01/16 13:04:30;;;;;;;17.08;9.65;;;5.10;65.30;;;;;;7368097;19;20136;-42
2022/01/16 13:07:02;;;;;;;13.55;8.82;;;5.10;64.40;;;;;;7350021;19;20166;-41
2022/01/16 13:09:35;;;;;;;18.30;9.70;;;5.20;64.20;;;;;;7372697;19;20135;-42
2022/01/16 13:12:07;;;;;;;18.52;10.10;;;5.10;64.20;;;;;;7361492;19;20151;-43
2022/01/16 13:14:39;;;;;;;14.60;8.27;;;5.10;64.10;;;;;;7374357;19;20553;-42
2022/01/16 13:17:12;;;;;;;15.80;8.48;;;5.10;64.10;;;;;;7338308;19;20508;-42
2022/01/16 13:19:50;;;;;;;12.77;7.25;;;5.10;64.10;;;;;;7371634;19;20128;-42
2022/01/16 13:22:24;;;;;;;15.43;9.50;;;5.00;64.30;;;;;;7368578;19;20132;-42
2022/01/16 13:24:58;;;;;;;14.15;9.00;;;4.90;64.60;;;;;;7373158;19;20131;-44
2022/01/16 13:27:31;;;;;;;14.25;8.43;;;4.90;64.50;;;;;;7371772;19;20515;-42
2022/01/16 13:30:02;;;;;;;16.67;9.23;;;4.90;64.40;;;;;;7369427;19;20649;-42
2022/01/16 13:32:33;;;;;;;15.77;8.95;;;4.90;64.70;;;;;;7369754;19;20621;-42
2022/01/16 13:35:04;;;;;;;16.58;10.57;;;4.90;64.50;;;;;;7370302;19;20377;-43